sensor_id;sensor_type;location;lat;lon;timestamp;P1;durP1;ratioP1;P2;durP2;ratioP2
75009;SDS011;63564;46.840;18.336;2024-02-26T00:01:15;3.40;;;2.40;;
75009;SDS011;63564;46.840;18.336;2024-02-26T00:04:15;7.25;;;3.92;;
75009;SDS011;63564;46.840;18.336;2024-02-26T00:07:16;6.13;;;3.30;;
75009;SDS011;63564;46.840;18.336;2024-02-26T00:10:16;6.37;;;3.33;;
75009;SDS011;63564;46.840;18.336;2024-02-26T00:13:16;6.97;;;4.53;;
75009;SDS011;63564;46.840;18.336;2024-02-26T00:16:17;8.57;;;4.10;;
75009;SDS011;63564;46.840;18.336;2024-02-26T00:19:17;3.50;;;2.33;;
75009;SDS011;63564;46.840;18.336;2024-02-26T00:22:18;7.37;;;3.27;;
75009;SDS011;63564;46.840;18.336;2024-02-26T00:25:18;6.77;;;3.03;;
75009;SDS011;63564;46.840;18.336;2024-02-26T00:28:18;3.57;;;2.00;;
75009;SDS011;63564;46.840;18.336;2024-02-26T00:31:22;5.93;;;3.40;;
75009;SDS011;63564;46.840;18.336;2024-02-26T00:34:22;8.90;;;3.47;;
75009;SDS011;63564;46.840;18.336;2024-02-26T00:37:23;8.03;;;4.23;;
75009;SDS011;63564;46.840;18.336;2024-02-26T00:40:23;9.67;;;3.07;;
75009;SDS011;63564;46.840;18.336;2024-02-26T00:43:23;4.43;;;2.90;;
75009;SDS011;63564;46.840;18.336;2024-02-26T00:46:24;7.47;;;2.70;;
75009;SDS011;63564;46.840;18.336;2024-02-26T00:49:25;4.77;;;2.80;;
75009;SDS011;63564;46.840;18.336;2024-02-26T00:52:25;5.83;;;2.40;;
75009;SDS011;63564;46.840;18.336;2024-02-26T00:55:25;5.03;;;2.83;;
75009;SDS011;63564;46.840;18.336;2024-02-26T00:58:26;5.07;;;2.35;;
75009;SDS011;63564;46.840;18.336;2024-02-26T01:01:27;5.50;;;2.17;;
75009;SDS011;63564;46.840;18.336;2024-02-26T01:04:27;11.67;;;3.07;;
75009;SDS011;63564;46.840;18.336;2024-02-26T01:07:28;6.10;;;3.67;;
75009;SDS011;63564;46.840;18.336;2024-02-26T01:10:28;9.17;;;3.77;;
75009;SDS011;63564;46.840;18.336;2024-02-26T01:13:29;7.43;;;2.87;;
75009;SDS011;63564;46.840;18.336;2024-02-26T01:16:29;4.85;;;3.40;;
75009;SDS011;63564;46.840;18.336;2024-02-26T01:19:30;5.22;;;2.70;;
75009;SDS011;63564;46.840;18.336;2024-02-26T01:22:31;11.63;;;3.30;;
75009;SDS011;63564;46.840;18.336;2024-02-26T01:25:31;9.23;;;3.40;;
75009;SDS011;63564;46.840;18.336;2024-02-26T01:28:32;9.25;;;3.50;;
75009;SDS011;63564;46.840;18.336;2024-02-26T01:31:32;10.43;;;3.57;;
75009;SDS011;63564;46.840;18.336;2024-02-26T01:34:32;7.13;;;4.20;;
75009;SDS011;63564;46.840;18.336;2024-02-26T01:37:33;4.72;;;3.03;;
75009;SDS011;63564;46.840;18.336;2024-02-26T01:40:34;11.83;;;3.43;;
75009;SDS011;63564;46.840;18.336;2024-02-26T01:43:34;8.90;;;4.00;;
75009;SDS011;63564;46.840;18.336;2024-02-26T01:46:34;12.17;;;4.77;;
75009;SDS011;63564;46.840;18.336;2024-02-26T01:49:36;13.13;;;4.30;;
75009;SDS011;63564;46.840;18.336;2024-02-26T01:52:36;5.50;;;2.97;;
75009;SDS011;63564;46.840;18.336;2024-02-26T01:55:37;6.97;;;3.63;;
75009;SDS011;63564;46.840;18.336;2024-02-26T01:58:37;10.68;;;4.80;;
75009;SDS011;63564;46.840;18.336;2024-02-26T02:01:38;8.97;;;4.53;;
75009;SDS011;63564;46.840;18.336;2024-02-26T02:04:42;9.00;;;4.55;;
75009;SDS011;63564;46.840;18.336;2024-02-26T02:07:43;7.30;;;3.13;;
75009;SDS011;63564;46.840;18.336;2024-02-26T02:10:43;9.95;;;4.47;;
75009;SDS011;63564;46.840;18.336;2024-02-26T02:13:47;10.05;;;4.18;;
75009;SDS011;63564;46.840;18.336;2024-02-26T02:16:48;9.93;;;4.60;;
75009;SDS011;63564;46.840;18.336;2024-02-26T02:19:48;9.43;;;4.57;;
75009;SDS011;63564;46.840;18.336;2024-02-26T02:22:48;12.00;;;4.83;;
75009;SDS011;63564;46.840;18.336;2024-02-26T02:25:49;14.70;;;4.13;;
75009;SDS011;63564;46.840;18.336;2024-02-26T02:28:49;14.55;;;4.05;;
75009;SDS011;63564;46.840;18.336;2024-02-26T02:31:50;7.03;;;4.13;;
75009;SDS011;63564;46.840;18.336;2024-02-26T02:34:50;7.13;;;4.13;;
75009;SDS011;63564;46.840;18.336;2024-02-26T02:37:56;6.37;;;4.50;;
75009;SDS011;63564;46.840;18.336;2024-02-26T02:40:57;7.35;;;3.83;;
75009;SDS011;63564;46.840;18.336;2024-02-26T02:43:57;9.17;;;4.13;;
75009;SDS011;63564;46.840;18.336;2024-02-26T02:46:58;4.68;;;3.17;;
75009;SDS011;63564;46.840;18.336;2024-02-26T02:49:58;15.15;;;4.97;;
75009;SDS011;63564;46.840;18.336;2024-02-26T02:52:58;8.13;;;4.83;;
75009;SDS011;63564;46.840;18.336;2024-02-26T02:55:59;8.83;;;4.87;;
75009;SDS011;63564;46.840;18.336;2024-02-26T02:58:59;11.07;;;4.70;;
75009;SDS011;63564;46.840;18.336;2024-02-26T03:01:59;18.00;;;5.13;;
75009;SDS011;63564;46.840;18.336;2024-02-26T03:05:00;14.23;;;6.43;;
75009;SDS011;63564;46.840;18.336;2024-02-26T03:08:00;9.70;;;4.33;;
75009;SDS011;63564;46.840;18.336;2024-02-26T03:11:00;9.20;;;5.60;;
75009;SDS011;63564;46.840;18.336;2024-02-26T03:14:01;8.87;;;4.80;;
75009;SDS011;63564;46.840;18.336;2024-02-26T03:17:02;5.43;;;3.50;;
75009;SDS011;63564;46.840;18.336;2024-02-26T03:20:02;8.77;;;4.70;;
75009;SDS011;63564;46.840;18.336;2024-02-26T03:23:05;7.28;;;4.05;;
75009;SDS011;63564;46.840;18.336;2024-02-26T03:26:05;10.83;;;4.00;;
75009;SDS011;63564;46.840;18.336;2024-02-26T03:29:06;11.77;;;4.77;;
75009;SDS011;63564;46.840;18.336;2024-02-26T03:32:06;10.87;;;3.97;;
75009;SDS011;63564;46.840;18.336;2024-02-26T03:35:07;5.57;;;3.08;;
75009;SDS011;63564;46.840;18.336;2024-02-26T03:38:08;11.70;;;3.53;;
75009;SDS011;63564;46.840;18.336;2024-02-26T03:41:08;5.72;;;3.47;;
75009;SDS011;63564;46.840;18.336;2024-02-26T03:44:08;10.25;;;5.38;;
75009;SDS011;63564;46.840;18.336;2024-02-26T03:47:09;12.13;;;4.90;;
75009;SDS011;63564;46.840;18.336;2024-02-26T03:50:10;6.20;;;2.97;;
75009;SDS011;63564;46.840;18.336;2024-02-26T03:53:10;10.30;;;4.73;;
75009;SDS011;63564;46.840;18.336;2024-02-26T03:56:12;9.00;;;3.67;;
75009;SDS011;63564;46.840;18.336;2024-02-26T03:59:15;8.15;;;4.07;;
75009;SDS011;63564;46.840;18.336;2024-02-26T04:02:16;10.00;;;4.50;;
75009;SDS011;63564;46.840;18.336;2024-02-26T04:05:16;7.73;;;4.00;;
75009;SDS011;63564;46.840;18.336;2024-02-26T04:08:17;10.88;;;5.45;;
75009;SDS011;63564;46.840;18.336;2024-02-26T04:11:17;9.63;;;3.80;;
75009;SDS011;63564;46.840;18.336;2024-02-26T04:14:18;7.43;;;3.63;;
75009;SDS011;63564;46.840;18.336;2024-02-26T04:17:19;5.75;;;3.83;;
75009;SDS011;63564;46.840;18.336;2024-02-26T04:20:19;12.47;;;4.30;;
75009;SDS011;63564;46.840;18.336;2024-02-26T04:23:19;6.80;;;4.50;;
75009;SDS011;63564;46.840;18.336;2024-02-26T04:26:20;8.63;;;4.33;;
75009;SDS011;63564;46.840;18.336;2024-02-26T04:29:21;10.30;;;4.13;;
75009;SDS011;63564;46.840;18.336;2024-02-26T04:32:21;9.33;;;3.67;;
75009;SDS011;63564;46.840;18.336;2024-02-26T04:35:22;9.30;;;4.83;;
75009;SDS011;63564;46.840;18.336;2024-02-26T04:38:22;12.60;;;4.53;;
75009;SDS011;63564;46.840;18.336;2024-02-26T04:41:23;8.77;;;3.50;;
75009;SDS011;63564;46.840;18.336;2024-02-26T04:44:23;8.18;;;3.92;;
75009;SDS011;63564;46.840;18.336;2024-02-26T04:47:23;10.17;;;4.50;;
75009;SDS011;63564;46.840;18.336;2024-02-26T04:50:24;16.03;;;5.57;;
75009;SDS011;63564;46.840;18.336;2024-02-26T04:53:24;8.50;;;5.03;;
75009;SDS011;63564;46.840;18.336;2024-02-26T04:56:24;5.20;;;2.87;;
75009;SDS011;63564;46.840;18.336;2024-02-26T04:59:25;8.45;;;2.75;;
75009;SDS011;63564;46.840;18.336;2024-02-26T05:02:26;8.27;;;4.10;;
75009;SDS011;63564;46.840;18.336;2024-02-26T05:05:27;7.17;;;3.77;;
75009;SDS011;63564;46.840;18.336;2024-02-26T05:08:27;5.70;;;3.22;;
75009;SDS011;63564;46.840;18.336;2024-02-26T05:11:29;14.40;;;3.47;;
75009;SDS011;63564;46.840;18.336;2024-02-26T05:14:29;9.02;;;3.97;;
75009;SDS011;63564;46.840;18.336;2024-02-26T05:17:29;9.95;;;4.28;;
75009;SDS011;63564;46.840;18.336;2024-02-26T05:20:30;6.60;;;4.00;;
75009;SDS011;63564;46.840;18.336;2024-02-26T05:23:31;9.13;;;3.70;;
75009;SDS011;63564;46.840;18.336;2024-02-26T05:26:31;5.68;;;2.92;;
75009;SDS011;63564;46.840;18.336;2024-02-26T05:29:32;6.27;;;2.83;;
75009;SDS011;63564;46.840;18.336;2024-02-26T05:32:32;6.17;;;2.93;;
75009;SDS011;63564;46.840;18.336;2024-02-26T05:35:32;4.30;;;2.87;;
75009;SDS011;63564;46.840;18.336;2024-02-26T05:38:33;8.33;;;4.00;;
75009;SDS011;63564;46.840;18.336;2024-02-26T05:41:33;6.13;;;3.33;;
75009;SDS011;63564;46.840;18.336;2024-02-26T05:44:34;6.95;;;3.83;;
75009;SDS011;63564;46.840;18.336;2024-02-26T05:47:34;6.32;;;3.45;;
75009;SDS011;63564;46.840;18.336;2024-02-26T05:50:35;5.73;;;3.67;;
75009;SDS011;63564;46.840;18.336;2024-02-26T05:53:35;4.73;;;2.87;;
75009;SDS011;63564;46.840;18.336;2024-02-26T05:56:35;4.37;;;2.80;;
75009;SDS011;63564;46.840;18.336;2024-02-26T05:59:36;6.38;;;3.38;;
75009;SDS011;63564;46.840;18.336;2024-02-26T06:02:36;6.70;;;3.72;;
75009;SDS011;63564;46.840;18.336;2024-02-26T06:05:36;7.53;;;3.57;;
75009;SDS011;63564;46.840;18.336;2024-02-26T06:08:37;6.43;;;3.23;;
75009;SDS011;63564;46.840;18.336;2024-02-26T06:11:37;5.87;;;2.73;;
75009;SDS011;63564;46.840;18.336;2024-02-26T06:14:38;3.80;;;2.47;;
75009;SDS011;63564;46.840;18.336;2024-02-26T06:17:38;4.03;;;2.47;;
75009;SDS011;63564;46.840;18.336;2024-02-26T06:20:39;4.13;;;2.45;;
75009;SDS011;63564;46.840;18.336;2024-02-26T06:23:39;5.47;;;3.33;;
75009;SDS011;63564;46.840;18.336;2024-02-26T06:26:40;6.60;;;4.10;;
75009;SDS011;63564;46.840;18.336;2024-02-26T06:29:40;4.27;;;2.83;;
75009;SDS011;63564;46.840;18.336;2024-02-26T06:32:41;7.50;;;3.58;;
75009;SDS011;63564;46.840;18.336;2024-02-26T06:35:41;13.55;;;4.45;;
75009;SDS011;63564;46.840;18.336;2024-02-26T06:38:41;6.83;;;3.57;;
75009;SDS011;63564;46.840;18.336;2024-02-26T06:41:42;7.07;;;2.80;;
75009;SDS011;63564;46.840;18.336;2024-02-26T06:44:42;6.20;;;3.70;;
75009;SDS011;63564;46.840;18.336;2024-02-26T06:47:42;7.17;;;3.40;;
75009;SDS011;63564;46.840;18.336;2024-02-26T06:50:43;6.60;;;3.40;;
75009;SDS011;63564;46.840;18.336;2024-02-26T06:53:43;9.50;;;2.90;;
75009;SDS011;63564;46.840;18.336;2024-02-26T06:56:43;7.27;;;4.23;;
75009;SDS011;63564;46.840;18.336;2024-02-26T06:59:44;6.95;;;2.35;;
75009;SDS011;63564;46.840;18.336;2024-02-26T07:02:47;6.33;;;3.60;;
75009;SDS011;63564;46.840;18.336;2024-02-26T07:05:47;6.45;;;3.78;;
75009;SDS011;63564;46.840;18.336;2024-02-26T07:08:47;4.60;;;3.20;;
75009;SDS011;63564;46.840;18.336;2024-02-26T07:11:48;4.17;;;2.30;;
75009;SDS011;63564;46.840;18.336;2024-02-26T07:14:48;11.73;;;3.30;;
75009;SDS011;63564;46.840;18.336;2024-02-26T07:17:50;5.80;;;3.25;;
75009;SDS011;63564;46.840;18.336;2024-02-26T07:20:50;6.93;;;2.73;;
75009;SDS011;63564;46.840;18.336;2024-02-26T07:23:50;8.63;;;3.57;;
75009;SDS011;63564;46.840;18.336;2024-02-26T07:26:51;6.53;;;3.20;;
75009;SDS011;63564;46.840;18.336;2024-02-26T07:29:51;5.60;;;3.25;;
75009;SDS011;63564;46.840;18.336;2024-02-26T07:32:52;6.22;;;3.47;;
75009;SDS011;63564;46.840;18.336;2024-02-26T07:35:52;7.87;;;3.47;;
75009;SDS011;63564;46.840;18.336;2024-02-26T07:38:53;8.27;;;3.83;;
75009;SDS011;63564;46.840;18.336;2024-02-26T07:41:54;9.63;;;4.97;;
75009;SDS011;63564;46.840;18.336;2024-02-26T07:44:54;10.73;;;3.87;;
75009;SDS011;63564;46.840;18.336;2024-02-26T07:47:55;6.57;;;3.22;;
75009;SDS011;63564;46.840;18.336;2024-02-26T07:50:56;6.77;;;3.87;;
75009;SDS011;63564;46.840;18.336;2024-02-26T07:53:56;9.60;;;3.23;;
75009;SDS011;63564;46.840;18.336;2024-02-26T07:56:57;7.93;;;4.03;;
75009;SDS011;63564;46.840;18.336;2024-02-26T07:59:57;8.33;;;3.67;;
75009;SDS011;63564;46.840;18.336;2024-02-26T08:02:57;8.57;;;3.30;;
75009;SDS011;63564;46.840;18.336;2024-02-26T08:05:58;5.63;;;3.10;;
75009;SDS011;63564;46.840;18.336;2024-02-26T08:08:58;4.77;;;2.20;;
75009;SDS011;63564;46.840;18.336;2024-02-26T08:11:59;5.00;;;1.97;;
75009;SDS011;63564;46.840;18.336;2024-02-26T08:14:59;12.77;;;4.25;;
75009;SDS011;63564;46.840;18.336;2024-02-26T08:18:00;6.90;;;3.40;;
75009;SDS011;63564;46.840;18.336;2024-02-26T08:21:04;6.50;;;3.22;;
75009;SDS011;63564;46.840;18.336;2024-02-26T08:24:05;11.40;;;4.57;;
75009;SDS011;63564;46.840;18.336;2024-02-26T08:27:05;5.80;;;2.70;;
75009;SDS011;63564;46.840;18.336;2024-02-26T08:30:06;6.43;;;2.78;;
75009;SDS011;63564;46.840;18.336;2024-02-26T08:33:07;5.55;;;2.40;;
75009;SDS011;63564;46.840;18.336;2024-02-26T08:36:07;4.40;;;2.33;;
75009;SDS011;63564;46.840;18.336;2024-02-26T08:39:08;6.67;;;3.57;;
75009;SDS011;63564;46.840;18.336;2024-02-26T08:42:09;7.50;;;2.72;;
75009;SDS011;63564;46.840;18.336;2024-02-26T08:45:09;4.35;;;2.72;;
75009;SDS011;63564;46.840;18.336;2024-02-26T08:48:09;3.73;;;2.53;;
75009;SDS011;63564;46.840;18.336;2024-02-26T08:51:10;6.97;;;2.27;;
75009;SDS011;63564;46.840;18.336;2024-02-26T08:54:10;6.63;;;2.60;;
75009;SDS011;63564;46.840;18.336;2024-02-26T08:57:11;4.90;;;2.60;;
75009;SDS011;63564;46.840;18.336;2024-02-26T09:00:11;3.40;;;1.50;;
75009;SDS011;63564;46.840;18.336;2024-02-26T09:03:12;5.63;;;2.13;;
75009;SDS011;63564;46.840;18.336;2024-02-26T09:06:14;6.83;;;2.80;;
75009;SDS011;63564;46.840;18.336;2024-02-26T09:09:15;4.32;;;2.47;;
75009;SDS011;63564;46.840;18.336;2024-02-26T09:12:15;5.23;;;2.60;;
75009;SDS011;63564;46.840;18.336;2024-02-26T09:15:15;4.17;;;2.27;;
75009;SDS011;63564;46.840;18.336;2024-02-26T09:18:16;5.50;;;2.63;;
75009;SDS011;63564;46.840;18.336;2024-02-26T09:21:16;3.77;;;1.73;;
75009;SDS011;63564;46.840;18.336;2024-02-26T09:24:23;4.60;;;1.67;;
75009;SDS011;63564;46.840;18.336;2024-02-26T09:27:24;3.40;;;1.67;;
75009;SDS011;63564;46.840;18.336;2024-02-26T09:30:24;3.40;;;1.93;;
75009;SDS011;63564;46.840;18.336;2024-02-26T09:33:25;2.83;;;1.53;;
75009;SDS011;63564;46.840;18.336;2024-02-26T09:36:25;3.83;;;1.87;;
75009;SDS011;63564;46.840;18.336;2024-02-26T09:39:25;3.83;;;1.73;;
75009;SDS011;63564;46.840;18.336;2024-02-26T09:42:26;3.42;;;1.67;;
75009;SDS011;63564;46.840;18.336;2024-02-26T09:45:28;4.55;;;1.85;;
75009;SDS011;63564;46.840;18.336;2024-02-26T09:48:29;4.85;;;2.28;;
75009;SDS011;63564;46.840;18.336;2024-02-26T09:51:30;1.92;;;1.17;;
75009;SDS011;63564;46.840;18.336;2024-02-26T09:54:32;2.35;;;1.45;;
75009;SDS011;63564;46.840;18.336;2024-02-26T09:57:33;2.63;;;1.50;;
75009;SDS011;63564;46.840;18.336;2024-02-26T10:00:37;2.70;;;1.30;;
75009;SDS011;63564;46.840;18.336;2024-02-26T10:03:39;1.88;;;1.17;;
75009;SDS011;63564;46.840;18.336;2024-02-26T10:06:41;1.35;;;0.70;;
75009;SDS011;63564;46.840;18.336;2024-02-26T10:09:44;1.70;;;1.08;;
75009;SDS011;63564;46.840;18.336;2024-02-26T10:12:44;2.50;;;1.30;;
75009;SDS011;63564;46.840;18.336;2024-02-26T10:15:45;2.37;;;1.20;;
75009;SDS011;63564;46.840;18.336;2024-02-26T10:18:46;1.27;;;0.93;;
75009;SDS011;63564;46.840;18.336;2024-02-26T10:21:47;4.05;;;1.30;;
75009;SDS011;63564;46.840;18.336;2024-02-26T10:24:48;1.70;;;1.10;;
75009;SDS011;63564;46.840;18.336;2024-02-26T10:27:48;1.67;;;1.20;;
75009;SDS011;63564;46.840;18.336;2024-02-26T10:30:51;1.77;;;1.30;;
75009;SDS011;63564;46.840;18.336;2024-02-26T10:33:51;1.40;;;1.17;;
75009;SDS011;63564;46.840;18.336;2024-02-26T10:36:55;1.98;;;1.00;;
75009;SDS011;63564;46.840;18.336;2024-02-26T10:39:56;1.80;;;1.10;;
75009;SDS011;63564;46.840;18.336;2024-02-26T10:42:56;1.20;;;1.00;;
75009;SDS011;63564;46.840;18.336;2024-02-26T10:45:58;1.88;;;1.02;;
75009;SDS011;63564;46.840;18.336;2024-02-26T10:48:59;1.40;;;0.93;;
75009;SDS011;63564;46.840;18.336;2024-02-26T10:51:59;3.37;;;1.37;;
75009;SDS011;63564;46.840;18.336;2024-02-26T10:55:02;1.40;;;1.05;;
75009;SDS011;63564;46.840;18.336;2024-02-26T10:58:04;2.00;;;1.20;;
75009;SDS011;63564;46.840;18.336;2024-02-26T11:01:04;1.33;;;0.90;;
75009;SDS011;63564;46.840;18.336;2024-02-26T11:04:05;2.03;;;1.10;;
75009;SDS011;63564;46.840;18.336;2024-02-26T11:07:08;1.48;;;0.75;;
75009;SDS011;63564;46.840;18.336;2024-02-26T11:10:10;2.10;;;1.10;;
75009;SDS011;63564;46.840;18.336;2024-02-26T11:13:12;2.10;;;1.13;;
75009;SDS011;63564;46.840;18.336;2024-02-26T11:16:16;2.20;;;1.20;;
75009;SDS011;63564;46.840;18.336;2024-02-26T11:19:21;1.08;;;0.90;;
75009;SDS011;63564;46.840;18.336;2024-02-26T11:22:25;2.17;;;1.23;;
75009;SDS011;63564;46.840;18.336;2024-02-26T11:25:29;1.35;;;1.00;;
75009;SDS011;63564;46.840;18.336;2024-02-26T11:28:29;1.80;;;1.30;;
75009;SDS011;63564;46.840;18.336;2024-02-26T11:31:32;2.38;;;1.17;;
75009;SDS011;63564;46.840;18.336;2024-02-26T11:34:33;1.27;;;1.00;;
75009;SDS011;63564;46.840;18.336;2024-02-26T11:37:34;1.57;;;1.13;;
75009;SDS011;63564;46.840;18.336;2024-02-26T11:40:38;1.60;;;1.13;;
75009;SDS011;63564;46.840;18.336;2024-02-26T11:43:52;2.55;;;1.52;;
75009;SDS011;63564;46.840;18.336;2024-02-26T11:46:53;3.83;;;1.98;;
75009;SDS011;63564;46.840;18.336;2024-02-26T11:49:54;3.13;;;1.50;;
75009;SDS011;63564;46.840;18.336;2024-02-26T11:56:21;3.10;;;1.42;;
75009;SDS011;63564;46.840;18.336;2024-02-26T11:59:37;3.72;;;1.80;;
75009;SDS011;63564;46.840;18.336;2024-02-26T12:02:43;4.23;;;1.83;;
75009;SDS011;63564;46.840;18.336;2024-02-26T12:05:47;3.85;;;1.80;;
75009;SDS011;63564;46.840;18.336;2024-02-26T12:08:49;4.40;;;2.20;;
75009;SDS011;63564;46.840;18.336;2024-02-26T12:11:49;3.20;;;1.63;;
75009;SDS011;63564;46.840;18.336;2024-02-26T12:14:53;4.37;;;2.10;;
75009;SDS011;63564;46.840;18.336;2024-02-26T12:17:56;5.32;;;2.70;;
75009;SDS011;63564;46.840;18.336;2024-02-26T12:21:03;5.23;;;2.60;;
75009;SDS011;63564;46.840;18.336;2024-02-26T12:24:10;4.75;;;1.73;;
75009;SDS011;63564;46.840;18.336;2024-02-26T12:27:12;5.00;;;2.33;;
75009;SDS011;63564;46.840;18.336;2024-02-26T12:30:12;2.60;;;1.55;;
75009;SDS011;63564;46.840;18.336;2024-02-26T12:33:13;4.43;;;1.93;;
75009;SDS011;63564;46.840;18.336;2024-02-26T12:36:13;2.80;;;1.60;;
75009;SDS011;63564;46.840;18.336;2024-02-26T12:39:14;2.83;;;1.47;;
75009;SDS011;63564;46.840;18.336;2024-02-26T12:42:14;4.47;;;2.10;;
75009;SDS011;63564;46.840;18.336;2024-02-26T12:45:15;3.90;;;1.73;;
75009;SDS011;63564;46.840;18.336;2024-02-26T12:48:16;3.50;;;1.90;;
75009;SDS011;63564;46.840;18.336;2024-02-26T12:51:16;2.53;;;1.57;;
75009;SDS011;63564;46.840;18.336;2024-02-26T12:54:17;3.22;;;1.88;;
75009;SDS011;63564;46.840;18.336;2024-02-26T12:57:18;3.83;;;1.73;;
75009;SDS011;63564;46.840;18.336;2024-02-26T13:00:20;3.57;;;1.60;;
75009;SDS011;63564;46.840;18.336;2024-02-26T13:03:23;3.50;;;2.45;;
75009;SDS011;63564;46.840;18.336;2024-02-26T13:06:24;2.25;;;1.38;;
75009;SDS011;63564;46.840;18.336;2024-02-26T13:09:24;3.33;;;1.92;;
75009;SDS011;63564;46.840;18.336;2024-02-26T13:12:25;4.23;;;1.80;;
75009;SDS011;63564;46.840;18.336;2024-02-26T13:15:25;2.63;;;1.70;;
75009;SDS011;63564;46.840;18.336;2024-02-26T13:18:27;5.30;;;1.90;;
75009;SDS011;63564;46.840;18.336;2024-02-26T13:21:27;2.22;;;1.48;;
75009;SDS011;63564;46.840;18.336;2024-02-26T13:24:28;3.40;;;1.83;;
75009;SDS011;63564;46.840;18.336;2024-02-26T13:27:31;2.90;;;1.60;;
75009;SDS011;63564;46.840;18.336;2024-02-26T13:30:31;2.43;;;1.53;;
75009;SDS011;63564;46.840;18.336;2024-02-26T13:33:31;4.27;;;1.80;;
75009;SDS011;63564;46.840;18.336;2024-02-26T13:36:32;3.53;;;1.57;;
75009;SDS011;63564;46.840;18.336;2024-02-26T13:39:32;1.73;;;1.00;;
75009;SDS011;63564;46.840;18.336;2024-02-26T13:42:32;3.15;;;1.70;;
75009;SDS011;63564;46.840;18.336;2024-02-26T13:45:34;2.73;;;1.40;;
75009;SDS011;63564;46.840;18.336;2024-02-26T13:48:35;2.05;;;1.17;;
75009;SDS011;63564;46.840;18.336;2024-02-26T13:51:36;3.67;;;1.80;;
75009;SDS011;63564;46.840;18.336;2024-02-26T13:54:36;4.28;;;1.80;;
75009;SDS011;63564;46.840;18.336;2024-02-26T13:57:38;2.60;;;1.40;;
75009;SDS011;63564;46.840;18.336;2024-02-26T14:00:39;4.35;;;1.63;;
75009;SDS011;63564;46.840;18.336;2024-02-26T14:03:41;2.95;;;1.52;;
75009;SDS011;63564;46.840;18.336;2024-02-26T14:06:41;4.30;;;1.73;;
75009;SDS011;63564;46.840;18.336;2024-02-26T14:09:42;2.72;;;1.33;;
75009;SDS011;63564;46.840;18.336;2024-02-26T14:12:42;2.28;;;1.20;;
75009;SDS011;63564;46.840;18.336;2024-02-26T14:15:43;3.57;;;1.70;;
75009;SDS011;63564;46.840;18.336;2024-02-26T14:18:43;2.83;;;1.40;;
75009;SDS011;63564;46.840;18.336;2024-02-26T14:21:45;3.13;;;1.50;;
75009;SDS011;63564;46.840;18.336;2024-02-26T14:24:45;2.80;;;1.50;;
75009;SDS011;63564;46.840;18.336;2024-02-26T14:27:48;4.13;;;1.67;;
75009;SDS011;63564;46.840;18.336;2024-02-26T14:30:49;4.07;;;1.90;;
75009;SDS011;63564;46.840;18.336;2024-02-26T14:33:49;3.83;;;1.37;;
75009;SDS011;63564;46.840;18.336;2024-02-26T14:36:52;3.10;;;1.60;;
75009;SDS011;63564;46.840;18.336;2024-02-26T14:39:53;3.20;;;1.47;;
75009;SDS011;63564;46.840;18.336;2024-02-26T14:42:53;2.73;;;1.63;;
75009;SDS011;63564;46.840;18.336;2024-02-26T14:45:54;2.40;;;1.13;;
75009;SDS011;63564;46.840;18.336;2024-02-26T14:48:54;3.10;;;1.60;;
75009;SDS011;63564;46.840;18.336;2024-02-26T14:51:55;3.92;;;1.60;;
75009;SDS011;63564;46.840;18.336;2024-02-26T14:54:55;2.40;;;1.17;;
75009;SDS011;63564;46.840;18.336;2024-02-26T14:57:56;4.17;;;1.60;;
75009;SDS011;63564;46.840;18.336;2024-02-26T15:00:56;2.93;;;1.60;;
75009;SDS011;63564;46.840;18.336;2024-02-26T15:03:56;3.63;;;1.73;;
75009;SDS011;63564;46.840;18.336;2024-02-26T15:06:57;3.78;;;1.50;;
75009;SDS011;63564;46.840;18.336;2024-02-26T15:09:57;2.93;;;1.67;;
75009;SDS011;63564;46.840;18.336;2024-02-26T15:12:59;3.20;;;1.65;;
75009;SDS011;63564;46.840;18.336;2024-02-26T15:15:59;2.70;;;1.60;;
75009;SDS011;63564;46.840;18.336;2024-02-26T15:19:00;2.57;;;1.37;;
75009;SDS011;63564;46.840;18.336;2024-02-26T15:22:00;3.47;;;1.48;;
75009;SDS011;63564;46.840;18.336;2024-02-26T15:25:01;3.05;;;1.52;;
75009;SDS011;63564;46.840;18.336;2024-02-26T15:28:01;3.53;;;1.70;;
75009;SDS011;63564;46.840;18.336;2024-02-26T15:31:01;3.07;;;1.93;;
75009;SDS011;63564;46.840;18.336;2024-02-26T15:34:02;2.73;;;1.47;;
75009;SDS011;63564;46.840;18.336;2024-02-26T15:37:03;2.90;;;1.45;;
75009;SDS011;63564;46.840;18.336;2024-02-26T15:40:04;3.50;;;1.50;;
75009;SDS011;63564;46.840;18.336;2024-02-26T15:43:06;3.72;;;1.85;;
75009;SDS011;63564;46.840;18.336;2024-02-26T15:46:07;3.33;;;1.57;;
75009;SDS011;63564;46.840;18.336;2024-02-26T15:49:07;3.97;;;1.93;;
75009;SDS011;63564;46.840;18.336;2024-02-26T15:52:08;4.03;;;1.70;;
75009;SDS011;63564;46.840;18.336;2024-02-26T15:55:11;3.77;;;1.30;;
75009;SDS011;63564;46.840;18.336;2024-02-26T15:58:12;3.25;;;1.65;;
75009;SDS011;63564;46.840;18.336;2024-02-26T16:01:12;2.07;;;1.40;;
75009;SDS011;63564;46.840;18.336;2024-02-26T16:04:12;3.23;;;2.03;;
75009;SDS011;63564;46.840;18.336;2024-02-26T16:07:17;4.60;;;1.93;;
75009;SDS011;63564;46.840;18.336;2024-02-26T16:10:38;3.83;;;1.60;;
75009;SDS011;63564;46.840;18.336;2024-02-26T16:13:40;2.55;;;1.38;;
75009;SDS011;63564;46.840;18.336;2024-02-26T16:16:42;2.13;;;1.20;;
75009;SDS011;63564;46.840;18.336;2024-02-26T16:19:51;3.63;;;1.42;;
75009;SDS011;63564;46.840;18.336;2024-02-26T16:22:52;3.27;;;1.50;;
75009;SDS011;63564;46.840;18.336;2024-02-26T16:25:52;3.17;;;1.58;;
75009;SDS011;63564;46.840;18.336;2024-02-26T16:28:54;2.03;;;1.25;;
75009;SDS011;63564;46.840;18.336;2024-02-26T16:31:54;3.87;;;1.77;;
75009;SDS011;63564;46.840;18.336;2024-02-26T16:34:54;2.13;;;1.17;;
75009;SDS011;63564;46.840;18.336;2024-02-26T16:37:55;3.70;;;1.75;;
75009;SDS011;63564;46.840;18.336;2024-02-26T16:40:55;2.87;;;1.50;;
75009;SDS011;63564;46.840;18.336;2024-02-26T16:43:56;3.63;;;1.57;;
75009;SDS011;63564;46.840;18.336;2024-02-26T16:46:56;3.77;;;1.60;;
75009;SDS011;63564;46.840;18.336;2024-02-26T16:49:57;3.17;;;1.60;;
75009;SDS011;63564;46.840;18.336;2024-02-26T16:52:57;5.45;;;1.85;;
75009;SDS011;63564;46.840;18.336;2024-02-26T16:55:57;3.20;;;1.60;;
75009;SDS011;63564;46.840;18.336;2024-02-26T16:59:01;3.50;;;1.90;;
75009;SDS011;63564;46.840;18.336;2024-02-26T17:02:04;3.63;;;1.37;;
75009;SDS011;63564;46.840;18.336;2024-02-26T17:05:04;3.42;;;2.05;;
75009;SDS011;63564;46.840;18.336;2024-02-26T17:08:05;5.60;;;2.33;;
75009;SDS011;63564;46.840;18.336;2024-02-26T17:11:07;11.13;;;4.55;;
75009;SDS011;63564;46.840;18.336;2024-02-26T17:14:07;5.53;;;2.47;;
75009;SDS011;63564;46.840;18.336;2024-02-26T17:17:07;4.73;;;2.30;;
75009;SDS011;63564;46.840;18.336;2024-02-26T17:20:08;5.37;;;2.10;;
75009;SDS011;63564;46.840;18.336;2024-02-26T17:23:09;4.30;;;2.17;;
75009;SDS011;63564;46.840;18.336;2024-02-26T17:26:09;4.57;;;1.97;;
75009;SDS011;63564;46.840;18.336;2024-02-26T17:29:19;11.15;;;4.55;;
75009;SDS011;63564;46.840;18.336;2024-02-26T17:32:20;19.37;;;9.10;;
75009;SDS011;63564;46.840;18.336;2024-02-26T17:35:20;12.07;;;5.13;;
75009;SDS011;63564;46.840;18.336;2024-02-26T17:38:21;8.83;;;3.70;;
75009;SDS011;63564;46.840;18.336;2024-02-26T17:41:21;5.73;;;3.27;;
75009;SDS011;63564;46.840;18.336;2024-02-26T17:44:21;5.43;;;2.73;;
75009;SDS011;63564;46.840;18.336;2024-02-26T17:47:24;5.50;;;2.30;;
75009;SDS011;63564;46.840;18.336;2024-02-26T17:50:25;6.63;;;2.77;;
75009;SDS011;63564;46.840;18.336;2024-02-26T17:53:26;5.80;;;3.47;;
75009;SDS011;63564;46.840;18.336;2024-02-26T17:56:27;4.77;;;2.43;;